sensor_id;sensor_type;location;lat;lon;timestamp;temperature;humidity
41720;DHT22;27405;53.316;-6.294;2022-09-21T00:03:32;14.70;99.90
41720;DHT22;27405;53.316;-6.294;2022-09-21T00:06:05;14.70;99.90
41720;DHT22;27405;53.316;-6.294;2022-09-21T00:08:31;14.70;99.90
41720;DHT22;27405;53.316;-6.294;2022-09-21T00:10:57;14.80;99.90
41720;DHT22;27405;53.316;-6.294;2022-09-21T00:13:24;14.70;99.90
41720;DHT22;27405;53.316;-6.294;2022-09-21T00:15:53;14.80;99.90
41720;DHT22;27405;53.316;-6.294;2022-09-21T00:18:20;14.80;99.90
41720;DHT22;27405;53.316;-6.294;2022-09-21T00:20:45;14.80;99.90
41720;DHT22;27405;53.316;-6.294;2022-09-21T00:23:11;14.80;99.90
41720;DHT22;27405;53.316;-6.294;2022-09-21T00:25:37;14.90;99.90
41720;DHT22;27405;53.316;-6.294;2022-09-21T00:28:03;14.90;99.90
41720;DHT22;27405;53.316;-6.294;2022-09-21T00:30:29;14.90;99.90
41720;DHT22;27405;53.316;-6.294;2022-09-21T00:32:54;15.00;99.90
41720;DHT22;27405;53.316;-6.294;2022-09-21T00:35:20;15.00;99.90
41720;DHT22;27405;53.316;-6.294;2022-09-21T00:37:46;15.00;99.90
41720;DHT22;27405;53.316;-6.294;2022-09-21T00:40:11;15.00;99.90
41720;DHT22;27405;53.316;-6.294;2022-09-21T00:42:38;15.00;99.90
41720;DHT22;27405;53.316;-6.294;2022-09-21T00:45:04;15.00;99.90
41720;DHT22;27405;53.316;-6.294;2022-09-21T00:47:41;15.00;99.90
41720;DHT22;27405;53.316;-6.294;2022-09-21T00:50:13;15.00;99.90
41720;DHT22;27405;53.316;-6.294;2022-09-21T00:52:44;15.00;99.90
41720;DHT22;27405;53.316;-6.294;2022-09-21T00:55:16;15.00;99.90
41720;DHT22;27405;53.316;-6.294;2022-09-21T00:57:45;15.00;99.90
41720;DHT22;27405;53.316;-6.294;2022-09-21T01:00:12;15.00;99.90
41720;DHT22;27405;53.316;-6.294;2022-09-21T01:02:39;15.00;99.90
41720;DHT22;27405;53.316;-6.294;2022-09-21T01:05:06;15.00;99.90
41720;DHT22;27405;53.316;-6.294;2022-09-21T01:07:36;15.00;99.90
41720;DHT22;27405;53.316;-6.294;2022-09-21T01:10:06;15.10;99.90
41720;DHT22;27405;53.316;-6.294;2022-09-21T01:29:37;15.10;99.90
41720;DHT22;27405;53.316;-6.294;2022-09-21T01:32:12;15.10;99.90
41720;DHT22;27405;53.316;-6.294;2022-09-21T01:37:53;15.10;99.90
41720;DHT22;27405;53.316;-6.294;2022-09-21T01:40:33;15.10;99.90
41720;DHT22;27405;53.316;-6.294;2022-09-21T01:43:01;15.10;99.90
41720;DHT22;27405;53.316;-6.294;2022-09-21T01:45:34;15.20;99.90
41720;DHT22;27405;53.316;-6.294;2022-09-21T01:48:02;15.20;99.90
41720;DHT22;27405;53.316;-6.294;2022-09-21T01:50:35;15.10;99.90
41720;DHT22;27405;53.316;-6.294;2022-09-21T01:55:55;15.00;99.90
41720;DHT22;27405;53.316;-6.294;2022-09-21T02:01:00;15.10;99.90
41720;DHT22;27405;53.316;-6.294;2022-09-21T02:03:35;15.10;99.90
41720;DHT22;27405;53.316;-6.294;2022-09-21T02:06:05;15.00;99.90
41720;DHT22;27405;53.316;-6.294;2022-09-21T02:08:32;15.00;99.90
41720;DHT22;27405;53.316;-6.294;2022-09-21T02:11:00;15.00;99.90
41720;DHT22;27405;53.316;-6.294;2022-09-21T02:13:31;15.00;99.90
41720;DHT22;27405;53.316;-6.294;2022-09-21T02:24:39;14.90;99.90
41720;DHT22;27405;53.316;-6.294;2022-09-21T02:29:56;14.80;99.90
41720;DHT22;27405;53.316;-6.294;2022-09-21T02:35:05;14.80;99.90
41720;DHT22;27405;53.316;-6.294;2022-09-21T02:37:44;14.70;99.90
41720;DHT22;27405;53.316;-6.294;2022-09-21T02:45:59;14.70;99.90
41720;DHT22;27405;53.316;-6.294;2022-09-21T02:48:50;14.60;99.90
41720;DHT22;27405;53.316;-6.294;2022-09-21T02:51:26;14.60;99.90
41720;DHT22;27405;53.316;-6.294;2022-09-21T02:53:54;14.50;99.90
41720;DHT22;27405;53.316;-6.294;2022-09-21T02:56:21;14.40;99.90
41720;DHT22;27405;53.316;-6.294;2022-09-21T02:58:51;14.40;99.90
41720;DHT22;27405;53.316;-6.294;2022-09-21T03:01:19;14.30;99.90
41720;DHT22;27405;53.316;-6.294;2022-09-21T03:03:45;14.30;99.90
41720;DHT22;27405;53.316;-6.294;2022-09-21T03:06:11;14.20;99.90
41720;DHT22;27405;53.316;-6.294;2022-09-21T03:08:36;14.20;99.90
41720;DHT22;27405;53.316;-6.294;2022-09-21T03:11:02;14.10;99.90
41720;DHT22;27405;53.316;-6.294;2022-09-21T03:13:28;14.10;99.90
41720;DHT22;27405;53.316;-6.294;2022-09-21T03:16:02;14.00;99.90
41720;DHT22;27405;53.316;-6.294;2022-09-21T03:18:29;14.00;99.90
41720;DHT22;27405;53.316;-6.294;2022-09-21T03:20:55;13.90;99.90
41720;DHT22;27405;53.316;-6.294;2022-09-21T03:23:21;13.90;99.90
41720;DHT22;27405;53.316;-6.294;2022-09-21T03:25:47;13.90;99.90
41720;DHT22;27405;53.316;-6.294;2022-09-21T03:28:13;13.90;99.90
41720;DHT22;27405;53.316;-6.294;2022-09-21T03:30:39;13.90;99.90
41720;DHT22;27405;53.316;-6.294;2022-09-21T03:33:05;13.90;99.90
41720;DHT22;27405;53.316;-6.294;2022-09-21T03:35:31;13.90;99.90
41720;DHT22;27405;53.316;-6.294;2022-09-21T03:38:00;13.90;99.90
41720;DHT22;27405;53.316;-6.294;2022-09-21T03:40:27;13.90;99.90
41720;DHT22;27405;53.316;-6.294;2022-09-21T03:42:53;13.80;99.90
41720;DHT22;27405;53.316;-6.294;2022-09-21T03:45:20;13.90;99.90
41720;DHT22;27405;53.316;-6.294;2022-09-21T03:47:56;13.90;99.90
41720;DHT22;27405;53.316;-6.294;2022-09-21T03:50:28;13.90;99.90
41720;DHT22;27405;53.316;-6.294;2022-09-21T03:52:56;13.90;99.90
41720;DHT22;27405;53.316;-6.294;2022-09-21T03:55:22;14.00;99.90
41720;DHT22;27405;53.316;-6.294;2022-09-21T03:57:48;13.90;99.90
41720;DHT22;27405;53.316;-6.294;2022-09-21T04:00:14;13.90;99.90
41720;DHT22;27405;53.316;-6.294;2022-09-21T04:06:10;13.90;99.90
41720;DHT22;27405;53.316;-6.294;2022-09-21T04:08:37;13.90;99.90
41720;DHT22;27405;53.316;-6.294;2022-09-21T04:11:15;13.90;99.90
41720;DHT22;27405;53.316;-6.294;2022-09-21T04:13:42;13.90;99.90
41720;DHT22;27405;53.316;-6.294;2022-09-21T04:16:09;13.90;99.90
41720;DHT22;27405;53.316;-6.294;2022-09-21T04:18:36;13.90;99.90
41720;DHT22;27405;53.316;-6.294;2022-09-21T04:21:02;13.90;99.90
41720;DHT22;27405;53.316;-6.294;2022-09-21T04:23:28;13.90;99.90
41720;DHT22;27405;53.316;-6.294;2022-09-21T04:25:54;13.80;99.90
41720;DHT22;27405;53.316;-6.294;2022-09-21T04:28:20;13.80;99.90
41720;DHT22;27405;53.316;-6.294;2022-09-21T04:30:53;13.80;99.90
41720;DHT22;27405;53.316;-6.294;2022-09-21T04:33:20;13.80;99.90
41720;DHT22;27405;53.316;-6.294;2022-09-21T04:35:46;13.80;99.90
41720;DHT22;27405;53.316;-6.294;2022-09-21T04:38:12;13.80;99.90
41720;DHT22;27405;53.316;-6.294;2022-09-21T04:40:38;13.80;99.90
41720;DHT22;27405;53.316;-6.294;2022-09-21T04:43:04;13.80;99.90
41720;DHT22;27405;53.316;-6.294;2022-09-21T04:45:30;13.80;99.90
41720;DHT22;27405;53.316;-6.294;2022-09-21T04:47:56;13.90;99.90
41720;DHT22;27405;53.316;-6.294;2022-09-21T04:50:22;13.90;99.90
41720;DHT22;27405;53.316;-6.294;2022-09-21T04:52:48;14.00;99.90
41720;DHT22;27405;53.316;-6.294;2022-09-21T04:55:14;14.00;99.90
41720;DHT22;27405;53.316;-6.294;2022-09-21T04:57:39;14.00;99.90
41720;DHT22;27405;53.316;-6.294;2022-09-21T05:00:05;14.10;99.90
41720;DHT22;27405;53.316;-6.294;2022-09-21T05:02:31;14.10;99.90
41720;DHT22;27405;53.316;-6.294;2022-09-21T05:04:57;14.10;99.90
41720;DHT22;27405;53.316;-6.294;2022-09-21T05:07:22;14.10;99.90
41720;DHT22;27405;53.316;-6.294;2022-09-21T05:09:48;14.10;99.90
41720;DHT22;27405;53.316;-6.294;2022-09-21T05:12:33;14.20;99.90
41720;DHT22;27405;53.316;-6.294;2022-09-21T05:14:59;14.20;99.90
41720;DHT22;27405;53.316;-6.294;2022-09-21T05:17:25;14.20;99.90
41720;DHT22;27405;53.316;-6.294;2022-09-21T05:19:51;14.20;99.90
41720;DHT22;27405;53.316;-6.294;2022-09-21T05:22:18;14.20;99.90
41720;DHT22;27405;53.316;-6.294;2022-09-21T05:24:44;14.20;99.90
41720;DHT22;27405;53.316;-6.294;2022-09-21T05:27:10;14.30;99.90
41720;DHT22;27405;53.316;-6.294;2022-09-21T05:29:36;14.30;99.90
41720;DHT22;27405;53.316;-6.294;2022-09-21T05:40:02;14.40;99.90
41720;DHT22;27405;53.316;-6.294;2022-09-21T05:42:28;14.40;99.90
41720;DHT22;27405;53.316;-6.294;2022-09-21T05:44:54;14.40;99.90
41720;DHT22;27405;53.316;-6.294;2022-09-21T05:48:10;14.40;99.90
41720;DHT22;27405;53.316;-6.294;2022-09-21T05:56:03;14.30;99.90
41720;DHT22;27405;53.316;-6.294;2022-09-21T05:58:53;14.30;99.90
41720;DHT22;27405;53.316;-6.294;2022-09-21T06:01:36;14.20;99.90
41720;DHT22;27405;53.316;-6.294;2022-09-21T06:04:04;14.20;99.90
41720;DHT22;27405;53.316;-6.294;2022-09-21T06:06:32;14.20;99.90
41720;DHT22;27405;53.316;-6.294;2022-09-21T06:08:58;14.20;99.90
41720;DHT22;27405;53.316;-6.294;2022-09-21T06:11:23;14.20;99.90
41720;DHT22;27405;53.316;-6.294;2022-09-21T06:13:49;14.20;99.90
41720;DHT22;27405;53.316;-6.294;2022-09-21T06:16:15;14.20;99.90
41720;DHT22;27405;53.316;-6.294;2022-09-21T06:18:41;14.30;99.90
41720;DHT22;27405;53.316;-6.294;2022-09-21T06:21:07;14.40;99.90
41720;DHT22;27405;53.316;-6.294;2022-09-21T06:23:33;14.40;99.90
41720;DHT22;27405;53.316;-6.294;2022-09-21T06:25:59;14.40;99.90
41720;DHT22;27405;53.316;-6.294;2022-09-21T06:28:24;14.50;99.90
41720;DHT22;27405;53.316;-6.294;2022-09-21T06:30:51;14.50;99.90
41720;DHT22;27405;53.316;-6.294;2022-09-21T06:33:18;14.60;99.90
41720;DHT22;27405;53.316;-6.294;2022-09-21T06:35:58;14.60;99.90
41720;DHT22;27405;53.316;-6.294;2022-09-21T06:38:25;14.60;99.90
41720;DHT22;27405;53.316;-6.294;2022-09-21T06:40:51;14.60;99.90
41720;DHT22;27405;53.316;-6.294;2022-09-21T06:43:17;14.70;99.90
41720;DHT22;27405;53.316;-6.294;2022-09-21T06:45:43;14.70;99.90
41720;DHT22;27405;53.316;-6.294;2022-09-21T06:48:16;14.80;99.90
41720;DHT22;27405;53.316;-6.294;2022-09-21T06:50:42;14.80;99.90
41720;DHT22;27405;53.316;-6.294;2022-09-21T06:53:08;14.80;99.90
41720;DHT22;27405;53.316;-6.294;2022-09-21T06:55:33;14.90;99.90
41720;DHT22;27405;53.316;-6.294;2022-09-21T06:58:00;14.90;99.90
41720;DHT22;27405;53.316;-6.294;2022-09-21T07:00:27;14.90;99.90
41720;DHT22;27405;53.316;-6.294;2022-09-21T07:02:53;15.00;99.90
41720;DHT22;27405;53.316;-6.294;2022-09-21T07:05:19;15.00;99.90
41720;DHT22;27405;53.316;-6.294;2022-09-21T07:07:44;15.00;99.90
41720;DHT22;27405;53.316;-6.294;2022-09-21T07:10:10;15.10;99.90
41720;DHT22;27405;53.316;-6.294;2022-09-21T07:12:36;15.20;99.90
41720;DHT22;27405;53.316;-6.294;2022-09-21T07:15:03;15.20;99.90
41720;DHT22;27405;53.316;-6.294;2022-09-21T07:17:37;15.30;99.90
41720;DHT22;27405;53.316;-6.294;2022-09-21T07:20:04;15.30;99.90
41720;DHT22;27405;53.316;-6.294;2022-09-21T07:22:32;15.40;99.90
41720;DHT22;27405;53.316;-6.294;2022-09-21T07:24:58;15.40;99.90
41720;DHT22;27405;53.316;-6.294;2022-09-21T07:27:25;15.50;99.90
41720;DHT22;27405;53.316;-6.294;2022-09-21T07:29:51;15.50;99.90
41720;DHT22;27405;53.316;-6.294;2022-09-21T07:32:17;15.50;99.90
41720;DHT22;27405;53.316;-6.294;2022-09-21T07:34:43;15.60;99.90
41720;DHT22;27405;53.316;-6.294;2022-09-21T07:37:09;15.60;99.90
41720;DHT22;27405;53.316;-6.294;2022-09-21T07:39:34;15.70;99.90
41720;DHT22;27405;53.316;-6.294;2022-09-21T07:42:00;15.70;99.90
41720;DHT22;27405;53.316;-6.294;2022-09-21T07:44:26;15.80;99.90
41720;DHT22;27405;53.316;-6.294;2022-09-21T07:46:52;15.90;99.90
41720;DHT22;27405;53.316;-6.294;2022-09-21T07:49:17;15.90;99.90
41720;DHT22;27405;53.316;-6.294;2022-09-21T07:51:43;16.00;99.90
41720;DHT22;27405;53.316;-6.294;2022-09-21T07:54:10;16.00;99.90
41720;DHT22;27405;53.316;-6.294;2022-09-21T07:56:36;16.00;99.90
41720;DHT22;27405;53.316;-6.294;2022-09-21T07:59:03;16.00;99.90
41720;DHT22;27405;53.316;-6.294;2022-09-21T08:01:37;16.00;99.90
41720;DHT22;27405;53.316;-6.294;2022-09-21T08:04:08;16.00;99.90
41720;DHT22;27405;53.316;-6.294;2022-09-21T08:06:35;16.10;99.90
41720;DHT22;27405;53.316;-6.294;2022-09-21T08:09:04;16.10;99.90
41720;DHT22;27405;53.316;-6.294;2022-09-21T08:11:31;16.10;99.90
41720;DHT22;27405;53.316;-6.294;2022-09-21T08:14:01;16.10;99.90
41720;DHT22;27405;53.316;-6.294;2022-09-21T08:16:28;16.10;99.90
41720;DHT22;27405;53.316;-6.294;2022-09-21T08:18:54;16.10;99.90
41720;DHT22;27405;53.316;-6.294;2022-09-21T08:21:19;16.20;99.90
41720;DHT22;27405;53.316;-6.294;2022-09-21T08:23:48;16.20;99.90
41720;DHT22;27405;53.316;-6.294;2022-09-21T08:26:16;16.30;99.90
41720;DHT22;27405;53.316;-6.294;2022-09-21T08:28:47;16.40;99.90
41720;DHT22;27405;53.316;-6.294;2022-09-21T08:31:18;16.40;99.90
41720;DHT22;27405;53.316;-6.294;2022-09-21T08:33:44;16.40;99.90
41720;DHT22;27405;53.316;-6.294;2022-09-21T08:36:10;16.50;99.90
41720;DHT22;27405;53.316;-6.294;2022-09-21T08:38:37;16.40;99.90
41720;DHT22;27405;53.316;-6.294;2022-09-21T08:47:19;16.50;99.90
41720;DHT22;27405;53.316;-6.294;2022-09-21T08:49:55;16.50;99.90
41720;DHT22;27405;53.316;-6.294;2022-09-21T08:52:22;16.60;99.90
41720;DHT22;27405;53.316;-6.294;2022-09-21T08:57:31;16.60;99.90
41720;DHT22;27405;53.316;-6.294;2022-09-21T08:59:58;16.60;99.90
41720;DHT22;27405;53.316;-6.294;2022-09-21T09:08:08;16.50;99.90
41720;DHT22;27405;53.316;-6.294;2022-09-21T09:10:44;16.50;99.90
41720;DHT22;27405;53.316;-6.294;2022-09-21T09:13:42;16.50;99.90
41720;DHT22;27405;53.316;-6.294;2022-09-21T09:19:24;16.70;99.90
41720;DHT22;27405;53.316;-6.294;2022-09-21T09:21:53;16.80;99.90
41720;DHT22;27405;53.316;-6.294;2022-09-21T09:24:40;16.80;99.90
41720;DHT22;27405;53.316;-6.294;2022-09-21T09:27:08;16.90;99.90
41720;DHT22;27405;53.316;-6.294;2022-09-21T09:32:53;17.00;99.90
41720;DHT22;27405;53.316;-6.294;2022-09-21T09:35:29;17.10;99.90
41720;DHT22;27405;53.316;-6.294;2022-09-21T09:43:25;17.50;99.90
41720;DHT22;27405;53.316;-6.294;2022-09-21T09:48:48;17.60;99.90
41720;DHT22;27405;53.316;-6.294;2022-09-21T09:51:16;17.70;99.90
41720;DHT22;27405;53.316;-6.294;2022-09-21T09:53:43;17.80;99.90
41720;DHT22;27405;53.316;-6.294;2022-09-21T09:56:09;17.80;99.90
41720;DHT22;27405;53.316;-6.294;2022-09-21T10:01:07;17.80;99.90
41720;DHT22;27405;53.316;-6.294;2022-09-21T10:03:33;17.90;99.90
41720;DHT22;27405;53.316;-6.294;2022-09-21T10:06:00;17.90;99.90
41720;DHT22;27405;53.316;-6.294;2022-09-21T10:10:56;18.10;99.90
41720;DHT22;27405;53.316;-6.294;2022-09-21T10:13:29;18.10;99.90
41720;DHT22;27405;53.316;-6.294;2022-09-21T10:16:02;18.10;99.90
41720;DHT22;27405;53.316;-6.294;2022-09-21T10:21:38;18.20;99.90
41720;DHT22;27405;53.316;-6.294;2022-09-21T10:24:05;18.20;99.90
41720;DHT22;27405;53.316;-6.294;2022-09-21T10:26:36;18.20;99.90
41720;DHT22;27405;53.316;-6.294;2022-09-21T10:31:54;18.20;99.90
41720;DHT22;27405;53.316;-6.294;2022-09-21T10:34:20;18.20;99.90
41720;DHT22;27405;53.316;-6.294;2022-09-21T10:36:54;18.30;99.90
41720;DHT22;27405;53.316;-6.294;2022-09-21T10:39:33;18.40;99.90
41720;DHT22;27405;53.316;-6.294;2022-09-21T10:44:40;18.50;99.90
41720;DHT22;27405;53.316;-6.294;2022-09-21T10:47:21;18.50;99.90
41720;DHT22;27405;53.316;-6.294;2022-09-21T10:49:53;18.50;99.90
41720;DHT22;27405;53.316;-6.294;2022-09-21T10:52:22;18.40;99.90
41720;DHT22;27405;53.316;-6.294;2022-09-21T10:54:51;18.40;99.90
41720;DHT22;27405;53.316;-6.294;2022-09-21T10:57:21;18.40;99.90
41720;DHT22;27405;53.316;-6.294;2022-09-21T10:59:47;18.30;99.90
41720;DHT22;27405;53.316;-6.294;2022-09-21T11:02:33;18.30;99.90
41720;DHT22;27405;53.316;-6.294;2022-09-21T11:05:13;18.30;99.90
41720;DHT22;27405;53.316;-6.294;2022-09-21T11:07:48;18.30;99.90
41720;DHT22;27405;53.316;-6.294;2022-09-21T11:15:55;18.60;99.90
41720;DHT22;27405;53.316;-6.294;2022-09-21T11:20:58;18.60;99.90
41720;DHT22;27405;53.316;-6.294;2022-09-21T11:23:43;18.70;99.90
41720;DHT22;27405;53.316;-6.294;2022-09-21T11:29:21;18.90;99.90
41720;DHT22;27405;53.316;-6.294;2022-09-21T11:34:55;19.00;99.90
41720;DHT22;27405;53.316;-6.294;2022-09-21T11:45:59;19.30;99.90
41720;DHT22;27405;53.316;-6.294;2022-09-21T11:49:32;19.40;99.90
41720;DHT22;27405;53.316;-6.294;2022-09-21T11:52:05;19.40;99.90
41720;DHT22;27405;53.316;-6.294;2022-09-21T11:54:55;19.50;99.90
41720;DHT22;27405;53.316;-6.294;2022-09-21T12:00:20;19.40;99.90
41720;DHT22;27405;53.316;-6.294;2022-09-21T12:11:07;19.60;99.90
41720;DHT22;27405;53.316;-6.294;2022-09-21T12:13:56;19.70;99.90
41720;DHT22;27405;53.316;-6.294;2022-09-21T12:19:40;20.00;99.90
41720;DHT22;27405;53.316;-6.294;2022-09-21T12:22:12;19.90;99.90
41720;DHT22;27405;53.316;-6.294;2022-09-21T12:24:49;19.70;99.90
41720;DHT22;27405;53.316;-6.294;2022-09-21T12:27:39;19.50;99.90
41720;DHT22;27405;53.316;-6.294;2022-09-21T12:30:18;19.40;99.90
41720;DHT22;27405;53.316;-6.294;2022-09-21T12:40:54;19.30;99.90
41720;DHT22;27405;53.316;-6.294;2022-09-21T12:43:42;19.40;99.90
41720;DHT22;27405;53.316;-6.294;2022-09-21T12:46:28;19.30;99.90
41720;DHT22;27405;53.316;-6.294;2022-09-21T12:48:58;19.30;99.90
41720;DHT22;27405;53.316;-6.294;2022-09-21T12:51:35;19.20;99.90
41720;DHT22;27405;53.316;-6.294;2022-09-21T12:54:11;19.10;99.90
41720;DHT22;27405;53.316;-6.294;2022-09-21T12:56:44;19.00;99.90
41720;DHT22;27405;53.316;-6.294;2022-09-21T13:02:22;19.10;99.90
41720;DHT22;27405;53.316;-6.294;2022-09-21T13:10:45;19.80;99.90
41720;DHT22;27405;53.316;-6.294;2022-09-21T13:13:28;20.00;99.90
41720;DHT22;27405;53.316;-6.294;2022-09-21T13:15:55;20.00;99.90
41720;DHT22;27405;53.316;-6.294;2022-09-21T13:18:35;20.00;99.90
41720;DHT22;27405;53.316;-6.294;2022-09-21T13:21:22;19.90;99.90
41720;DHT22;27405;53.316;-6.294;2022-09-21T13:26:37;19.70;99.90
41720;DHT22;27405;53.316;-6.294;2022-09-21T13:32:48;19.40;99.90
41720;DHT22;27405;53.316;-6.294;2022-09-21T13:34:42;19.30;99.90
41720;DHT22;27405;53.316;-6.294;2022-09-21T13:47:50;19.20;99.90
41720;DHT22;27405;53.316;-6.294;2022-09-21T13:52:45;19.20;99.90
41720;DHT22;27405;53.316;-6.294;2022-09-21T13:55:31;19.20;99.90
41720;DHT22;27405;53.316;-6.294;2022-09-21T14:00:51;19.10;99.90
41720;DHT22;27405;53.316;-6.294;2022-09-21T14:03:26;19.10;99.90
41720;DHT22;27405;53.316;-6.294;2022-09-21T14:06:08;19.00;99.90
41720;DHT22;27405;53.316;-6.294;2022-09-21T14:08:45;19.00;99.90
41720;DHT22;27405;53.316;-6.294;2022-09-21T14:11:20;18.90;99.90
41720;DHT22;27405;53.316;-6.294;2022-09-21T14:16:52;19.00;99.90
41720;DHT22;27405;53.316;-6.294;2022-09-21T14:27:38;19.30;99.90
41720;DHT22;27405;53.316;-6.294;2022-09-21T14:30:26;19.40;99.90
41720;DHT22;27405;53.316;-6.294;2022-09-21T14:35:51;19.60;99.90
41720;DHT22;27405;53.316;-6.294;2022-09-21T14:38:26;19.70;99.90
41720;DHT22;27405;53.316;-6.294;2022-09-21T14:40:58;19.80;99.90
41720;DHT22;27405;53.316;-6.294;2022-09-21T14:43:34;19.80;99.90
41720;DHT22;27405;53.316;-6.294;2022-09-21T14:52:04;19.80;99.90
41720;DHT22;27405;53.316;-6.294;2022-09-21T15:06:14;20.30;99.90
41720;DHT22;27405;53.316;-6.294;2022-09-21T15:12:18;20.20;99.90
41720;DHT22;27405;53.316;-6.294;2022-09-21T15:17:55;20.10;99.90
41720;DHT22;27405;53.316;-6.294;2022-09-21T15:20:25;20.10;99.90
41720;DHT22;27405;53.316;-6.294;2022-09-21T15:22:55;20.00;99.90
41720;DHT22;27405;53.316;-6.294;2022-09-21T15:25:22;20.00;99.90
41720;DHT22;27405;53.316;-6.294;2022-09-21T15:27:48;20.10;99.90
41720;DHT22;27405;53.316;-6.294;2022-09-21T15:30:24;20.00;99.90
41720;DHT22;27405;53.316;-6.294;2022-09-21T15:33:01;20.00;99.90
41720;DHT22;27405;53.316;-6.294;2022-09-21T15:35:31;20.00;99.90
41720;DHT22;27405;53.316;-6.294;2022-09-21T15:37:58;19.90;99.90
41720;DHT22;27405;53.316;-6.294;2022-09-21T15:40:34;20.00;99.90
41720;DHT22;27405;53.316;-6.294;2022-09-21T15:48:21;20.20;99.90
41720;DHT22;27405;53.316;-6.294;2022-09-21T15:50:51;20.30;99.90
41720;DHT22;27405;53.316;-6.294;2022-09-21T15:53:23;20.30;99.90
41720;DHT22;27405;53.316;-6.294;2022-09-21T15:55:50;20.30;99.90
41720;DHT22;27405;53.316;-6.294;2022-09-21T15:58:32;20.30;99.90
41720;DHT22;27405;53.316;-6.294;2022-09-21T16:01:07;20.30;99.90
41720;DHT22;27405;53.316;-6.294;2022-09-21T16:03:33;20.30;99.90
41720;DHT22;27405;53.316;-6.294;2022-09-21T16:06:23;20.30;99.90
41720;DHT22;27405;53.316;-6.294;2022-09-21T16:08:49;20.30;99.90
41720;DHT22;27405;53.316;-6.294;2022-09-21T16:22:36;20.30;99.90
41720;DHT22;27405;53.316;-6.294;2022-09-21T16:27:49;20.20;99.90
41720;DHT22;27405;53.316;-6.294;2022-09-21T16:30:46;20.20;99.90
41720;DHT22;27405;53.316;-6.294;2022-09-21T16:38:45;20.00;99.90
41720;DHT22;27405;53.316;-6.294;2022-09-21T16:41:21;19.90;99.90
41720;DHT22;27405;53.316;-6.294;2022-09-21T16:43:49;19.80;99.90
41720;DHT22;27405;53.316;-6.294;2022-09-21T16:46:16;19.70;99.90
41720;DHT22;27405;53.316;-6.294;2022-09-21T16:48:42;19.60;99.90
41720;DHT22;27405;53.316;-6.294;2022-09-21T16:51:16;19.50;99.90
41720;DHT22;27405;53.316;-6.294;2022-09-21T16:53:52;19.40;99.90
41720;DHT22;27405;53.316;-6.294;2022-09-21T16:56:18;19.40;99.90
41720;DHT22;27405;53.316;-6.294;2022-09-21T16:58:44;19.30;99.90
41720;DHT22;27405;53.316;-6.294;2022-09-21T17:01:17;19.30;99.90
41720;DHT22;27405;53.316;-6.294;2022-09-21T17:03:47;19.20;99.90
41720;DHT22;27405;53.316;-6.294;2022-09-21T17:06:20;19.20;99.90
41720;DHT22;27405;53.316;-6.294;2022-09-21T17:08:46;19.30;99.90
41720;DHT22;27405;53.316;-6.294;2022-09-21T17:11:17;19.30;99.90
41720;DHT22;27405;53.316;-6.294;2022-09-21T17:13:47;19.40;99.90
41720;DHT22;27405;53.316;-6.294;2022-09-21T17:16:13;19.50;99.90
41720;DHT22;27405;53.316;-6.294;2022-09-21T17:18:45;19.40;99.90
41720;DHT22;27405;53.316;-6.294;2022-09-21T17:21:11;19.40;99.90
41720;DHT22;27405;53.316;-6.294;2022-09-21T17:23:37;19.40;99.90
41720;DHT22;27405;53.316;-6.294;2022-09-21T17:26:10;19.30;99.90
41720;DHT22;27405;53.316;-6.294;2022-09-21T17:28:40;19.20;99.90
41720;DHT22;27405;53.316;-6.294;2022-09-21T17:31:10;19.10;99.90
41720;DHT22;27405;53.316;-6.294;2022-09-21T17:33:36;19.00;99.90
41720;DHT22;27405;53.316;-6.294;2022-09-21T17:36:01;19.00;99.90
41720;DHT22;27405;53.316;-6.294;2022-09-21T17:38:30;18.90;99.90
41720;DHT22;27405;53.316;-6.294;2022-09-21T17:40:57;18.90;99.90
41720;DHT22;27405;53.316;-6.294;2022-09-21T17:49:02;18.80;99.90
41720;DHT22;27405;53.316;-6.294;2022-09-21T17:51:28;18.70;99.90
41720;DHT22;27405;53.316;-6.294;2022-09-21T17:54:13;18.70;99.90
41720;DHT22;27405;53.316;-6.294;2022-09-21T17:59:28;18.50;99.90
41720;DHT22;27405;53.316;-6.294;2022-09-21T18:01:54;18.50;99.90
41720;DHT22;27405;53.316;-6.294;2022-09-21T18:04:25;18.50;99.90
41720;DHT22;27405;53.316;-6.294;2022-09-21T18:06:53;18.40;99.90
41720;DHT22;27405;53.316;-6.294;2022-09-21T18:09:19;18.30;99.90
41720;DHT22;27405;53.316;-6.294;2022-09-21T18:14:56;18.20;99.90
41720;DHT22;27405;53.316;-6.294;2022-09-21T18:25:41;17.90;99.90
41720;DHT22;27405;53.316;-6.294;2022-09-21T18:28:38;17.90;99.90
41720;DHT22;27405;53.316;-6.294;2022-09-21T18:41:53;17.50;99.90
41720;DHT22;27405;53.316;-6.294;2022-09-21T18:44:33;17.50;99.90
41720;DHT22;27405;53.316;-6.294;2022-09-21T18:47:16;17.40;99.90
41720;DHT22;27405;53.316;-6.294;2022-09-21T18:55:26;17.30;99.90
41720;DHT22;27405;53.316;-6.294;2022-09-21T18:57:56;17.30;99.90
41720;DHT22;27405;53.316;-6.294;2022-09-21T19:00:23;17.30;99.90
41720;DHT22;27405;53.316;-6.294;2022-09-21T19:03:01;17.30;99.90
41720;DHT22;27405;53.316;-6.294;2022-09-21T19:05:28;17.30;99.90
41720;DHT22;27405;53.316;-6.294;2022-09-21T19:08:04;17.20;99.90
41720;DHT22;27405;53.316;-6.294;2022-09-21T19:10:37;17.20;99.90
41720;DHT22;27405;53.316;-6.294;2022-09-21T19:16:05;17.20;99.90
41720;DHT22;27405;53.316;-6.294;2022-09-21T19:21:30;17.10;99.90
41720;DHT22;27405;53.316;-6.294;2022-09-21T19:24:06;17.10;99.90
41720;DHT22;27405;53.316;-6.294;2022-09-21T19:26:41;17.10;99.90
41720;DHT22;27405;53.316;-6.294;2022-09-21T19:31:55;17.10;99.90
41720;DHT22;27405;53.316;-6.294;2022-09-21T19:34:21;17.10;99.90
41720;DHT22;27405;53.316;-6.294;2022-09-21T19:36:47;17.00;99.90
41720;DHT22;27405;53.316;-6.294;2022-09-21T19:39:13;17.00;99.90
41720;DHT22;27405;53.316;-6.294;2022-09-21T19:49:47;16.90;99.90
41720;DHT22;27405;53.316;-6.294;2022-09-21T19:52:18;16.90;99.90
41720;DHT22;27405;53.316;-6.294;2022-09-21T19:54:44;16.80;99.90
41720;DHT22;27405;53.316;-6.294;2022-09-21T19:57:29;16.90;99.90
41720;DHT22;27405;53.316;-6.294;2022-09-21T20:00:15;16.90;99.90
41720;DHT22;27405;53.316;-6.294;2022-09-21T20:07:55;16.80;99.90
41720;DHT22;27405;53.316;-6.294;2022-09-21T20:15:40;16.80;99.90
41720;DHT22;27405;53.316;-6.294;2022-09-21T20:18:10;16.80;99.90
41720;DHT22;27405;53.316;-6.294;2022-09-21T20:20:39;16.80;99.90
41720;DHT22;27405;53.316;-6.294;2022-09-21T20:23:08;16.80;99.90
41720;DHT22;27405;53.316;-6.294;2022-09-21T20:28:12;16.80;99.90
41720;DHT22;27405;53.316;-6.294;2022-09-21T20:30:38;16.80;99.90
41720;DHT22;27405;53.316;-6.294;2022-09-21T20:33:15;16.80;99.90
41720;DHT22;27405;53.316;-6.294;2022-09-21T20:35:41;16.80;99.90
41720;DHT22;27405;53.316;-6.294;2022-09-21T20:38:09;16.80;99.90
41720;DHT22;27405;53.316;-6.294;2022-09-21T20:40:35;16.80;99.90
41720;DHT22;27405;53.316;-6.294;2022-09-21T20:43:01;16.80;99.90
41720;DHT22;27405;53.316;-6.294;2022-09-21T20:45:28;16.80;99.90
41720;DHT22;27405;53.316;-6.294;2022-09-21T20:47:54;16.80;99.90